Wisdom, Montana
Current Conditions -  °F | °C
As of 7:15 AM on Sunday 21 Dec 2014 (Local Time) from KSMN Reporting Station
Overcast Overcast  
Wind Chill: 29°   Ceiling: 3600
Heat Index: 37°   Visibility: 10mi
Dew Point: 34°   Wind: 13mph
Humidity: 87%   Direction: 330°NNW
Pressure: 29.62"   Gusts: 16mph
Location:  45.61°N, 113.44°W
Report Text: KSMN 211415Z AUTO 33011G14KT 10SM OVC036 03/01 A2962 RMK AO1 P0001
Loading
Personal Weather Stations






























Interactive Weather Map New forecast layout! Learn more

10-Day Weather Forecast

Advertisements
Track Severe Weather on mobile